Melbourne, Victoria

4:24 AM AEST on July 29, 2016 (GMT +1000)
Location 2: Federation Square - GWTS | | Change Station

Elev 49 ft 37.82 °S, 144.97 °E | Updated 22 seconds ago

Mostly Cloudy
Mostly Cloudy
53.4 °F
Feels Like 53.4 °F
N
2.0
Wind Variable Wind from SSE
Gusts 2.5 mph

Today
High -- | Low -- °F
--% Chance of Precip.
Yesterday
High -- | Low -- °F
Precip. -- in
Pressure 30.12 in
Visibility 6.2 miles
Clouds Few 4000 ft
Mostly Cloudy 23000 ft
Dew Point 44 °F
Humidity 70%
Rainfall 0.00 in
Snow Depth Not available.
7:23 AM 5:30 PM
Waning Crescent, 30% visible
METAR YMML 281800Z 36014KT 9999 FEW040 BKN230 10/06 Q1020 FM1800 MOD TURB BLW 5000FT
Pressure 30.12 in
Visibility 6.2 miles
Clouds Few 4000 ft
Mostly Cloudy 23000 ft
Dew Point 44 °F
Humidity 70%
Rainfall 0.00 in
Snow Depth Not available.
7:23 AM 5:30 PM
Waning Crescent, 30% visible
METAR YMML 281800Z 36014KT 9999 FEW040 BKN230 10/06 Q1020 FM1800 MOD TURB BLW 5000FT

10-Day Weather Forecast

Almanac

Astronomy

Jul. 29, 2016 Rise Set
Actual Time
Civil Twilight
Nautical Twilight
Astronomical Twilight
Moon
Length of Visible Light
Length of Day
Tomorrow will be .
, % of the Moon is Illuminated

Today's Extremes

Country Highs Country Lows

Community

WunderPhotos

Upload Photos

1,928,174 photos uploaded!

WunderBlog® & News

Nearby

Air Quality

  Air Quality AQ Index Pollutant
Not available.

Snow Depth

Station Depth Elevation

Earthquake Activity

City Distance Mag. Time & Date
Minimum magnitude displayed is 2.5.

Coastal Water Temperatures

Place Temperature

Stations

Nearby Weather Stations

Station Location Temp. Windchill Dew Point Humidity Wind Precip. Elev Updated Type